Aérodrome :
LOGIN :

S'inscrire | Disclaimer

   EN    FR    IT 

 










Légende :    VFR   VFR Marginal   IFR   IFR Intensif   IFR Très Intensif
Visi : 
Plafond : 
>= 8 km
>= 3000ft
5 à 8 km
1000 à 3000 ft
1500m à 5 km
500 à 1000 ft
800 à 1500m
200 à 500 ft
< 800m
< 200 ft
Symboles :   Orages  Brouillard  Fortes neiges  Fortes précipitations  Vent > 20 kt
SIGMETs :   Divers  Orages  Givrage  Turbulence  Onde Orograph.  Cendres Volcan.







- Altitude de l'aérodrome : 203 ft
- Code IATA : XMJ
- Voir les cartes d'approche


LFBM - Mont-De-Marsan

DERNIER METAR :
  • 200930Z AUTO 27004KT 230V320 9999 BKN016 18/14 Q1017 NOSIG

METARs EXPIRÉS :
  • 200900Z AUTO 26004KT 190V310 9000 OVC013 17/13 Q1017 BECMG NSC
  • 200830Z AUTO 25005KT 220V290 9999 OVC012 16/13 Q1017 BECMG NSC
  • 200800Z AUTO 26005KT 220V320 9999 OVC010 16/13 Q1017
  • 200730Z AUTO 26006KT 8000 OVC008 15/13 Q1017 BECMG NSC
  • 200700Z AUTO 24004KT 190V270 7000 OVC006 15/13 Q1017 TEMPO 3000 BR BECMG NSC

TAF TAF LFBM
Valide du 20 à 09h jusqu'au 21 à 09h UTC


200800Z 2009/2109 26005KT 9999 BKN015
BECMG 2009/2010 NSC
TEMPO 2015/2020 4000 TSRA BKN050CB BKN100 BKN240
TEMPO 2104/2106 4000 BR BKN008
Pas de NOTAMs connus pour ce terrain.



MET'MAP, la Météo Aéronautique d'un coup d'oeil ! - Copyright ORBIFLY Décembre 2007 - Disclaimer

ORBIFLY MET'MAP TEAM :

Programmation & Développement : Alexandra Zaïnal
Conception & Développement : Baudouin d'Aumeries
Co-Programmation & Développement : Marc-Olivier Méhu
Soutien technique & logistique : Manuel Goepfert

Contact : metmap@orbifly.com




SOURCES & CREDITS :

   NOAA